createdAt,value
2023-01-12T00:01:12.093Z,100398.38
2023-01-12T00:03:41.406Z,100394.78
2023-01-12T00:06:14.438Z,100397.38
2023-01-12T00:08:44.432Z,100396.56
2023-01-12T00:11:13.576Z,100401.94
2023-01-12T00:13:42.902Z,100404.53
2023-01-12T00:16:33.455Z,100410.66
2023-01-12T00:19:03.290Z,100414.13
2023-01-12T00:21:36.983Z,100416.69
2023-01-12T00:24:08.632Z,100414.03
2023-01-12T00:26:37.779Z,100407.00
2023-01-12T00:29:07.156Z,100404.34
2023-01-12T00:31:36.230Z,100399.94
2023-01-12T00:34:05.678Z,100401.69
2023-01-12T00:36:36.340Z,100405.88
2023-01-12T00:39:05.954Z,100399.50
2023-01-12T00:41:52.129Z,100395.81
2023-01-12T00:44:39.324Z,100397.59
2023-01-12T00:47:10.163Z,100399.25
2023-01-12T00:49:41.331Z,100407.94
2023-01-12T00:52:24.991Z,100408.06
2023-01-12T00:54:59.005Z,100409.72
2023-01-12T00:57:28.779Z,100408.75
2023-01-12T01:00:00.076Z,100414.13
2023-01-12T01:02:29.965Z,100419.56
2023-01-12T01:04:59.591Z,100424.81
2023-01-12T01:07:29.965Z,100427.41
2023-01-12T01:09:59.226Z,100435.47
2023-01-12T01:12:28.270Z,100418.44
2023-01-12T01:14:57.548Z,100427.47
2023-01-12T01:17:28.737Z,100422.16
2023-01-12T01:19:58.605Z,100416.84
2023-01-12T01:22:29.064Z,100415.19
2023-01-12T01:24:58.463Z,100414.38
2023-01-12T01:27:27.478Z,100416.91
2023-01-12T01:29:56.762Z,100423.97
2023-01-12T01:32:25.731Z,100424.94
2023-01-12T01:34:55.002Z,100423.06
2023-01-12T01:37:24.098Z,100415.25
2023-01-12T01:39:56.364Z,100428.63
2023-01-12T01:42:30.283Z,100422.50
2023-01-12T01:45:02.651Z,100417.91
2023-01-12T01:47:37.505Z,100425.16
2023-01-12T01:50:15.756Z,100411.06
2023-01-12T01:52:50.676Z,100417.31
2023-01-12T01:55:25.050Z,100422.56
2023-01-12T01:57:59.113Z,100427.81
2023-01-12T02:00:28.978Z,100426.00
2023-01-12T02:03:00.727Z,100419.81
2023-01-12T02:05:30.752Z,100418.09
2023-01-12T02:08:06.772Z,100418.22
2023-01-12T02:10:39.150Z,100423.56
2023-01-12T02:13:25.692Z,100420.03
2023-01-12T02:16:19.063Z,100416.50
2023-01-12T02:18:57.631Z,100411.34
2023-01-12T02:21:53.805Z,100401.63
2023-01-12T02:24:48.902Z,100403.50
2023-01-12T02:27:34.748Z,100413.31
2023-01-12T02:30:31.029Z,100419.50
2023-01-12T02:33:14.170Z,100429.13
2023-01-12T02:35:50.622Z,100430.13
2023-01-12T02:38:34.547Z,100422.09
2023-01-12T02:41:16.536Z,100418.63
2023-01-12T02:43:45.559Z,100426.63
2023-01-12T02:46:21.432Z,100427.63
2023-01-12T02:48:56.843Z,100433.94
2023-01-12T02:51:32.172Z,100442.72
2023-01-12T02:54:05.587Z,100448.09
2023-01-12T02:56:39.273Z,100442.78
2023-01-12T02:59:13.067Z,100447.22
2023-01-12T03:01:43.973Z,100444.44
2023-01-12T03:04:15.624Z,100442.88
2023-01-12T03:06:49.769Z,100441.13
2023-01-12T03:09:20.628Z,100443.63
2023-01-12T03:11:52.334Z,100436.59
2023-01-12T03:14:23.876Z,100434.88
2023-01-12T03:16:55.649Z,100448.03
2023-01-12T03:19:31.552Z,100434.84
2023-01-12T03:22:04.609Z,100442.78
2023-01-12T03:24:39.600Z,100451.59
2023-01-12T03:27:13.235Z,100452.34
2023-01-12T03:29:47.162Z,100453.25
2023-01-12T03:32:16.478Z,100457.59
2023-01-12T03:34:47.881Z,100452.13
2023-01-12T03:37:26.110Z,100452.19
2023-01-12T03:40:03.165Z,100452.34
2023-01-12T03:42:39.526Z,100446.00
2023-01-12T03:45:22.048Z,100449.69
2023-01-12T03:47:58.021Z,100451.44
2023-01-12T03:50:34.656Z,100446.16
2023-01-12T03:53:06.767Z,100446.16
2023-01-12T03:55:39.530Z,100450.47
2023-01-12T03:58:09.044Z,100445.09
2023-01-12T04:00:39.064Z,100437.13
2023-01-12T04:03:11.873Z,100439.00
2023-01-12T04:05:43.680Z,100435.44
2023-01-12T04:08:14.429Z,100433.69
2023-01-12T04:10:44.305Z,100431.06
2023-01-12T04:13:13.470Z,100431.06
2023-01-12T04:15:43.330Z,100421.34
2023-01-12T04:18:13.214Z,100418.50
2023-01-12T04:20:44.018Z,100414.97
2023-01-12T04:23:11.973Z,100411.44
2023-01-12T04:25:41.221Z,100412.19
2023-01-12T04:28:10.367Z,100405.06
2023-01-12T04:30:39.605Z,100411.31
2023-01-12T04:33:11.012Z,100408.47
2023-01-12T04:35:40.532Z,100419.09
2023-01-12T04:38:11.893Z,100420.81
2023-01-12T04:40:41.271Z,100419.09
2023-01-12T04:43:12.084Z,100414.78
2023-01-12T04:45:43.790Z,100404.25
2023-01-12T04:48:15.245Z,100402.41
2023-01-12T04:50:44.759Z,100399.84
2023-01-12T04:53:15.652Z,100409.66
2023-01-12T04:55:45.608Z,100421.25
2023-01-12T04:58:14.675Z,100414.19
2023-01-12T05:00:43.947Z,100410.59
2023-01-12T05:03:13.936Z,100408.81
2023-01-12T05:05:43.706Z,100414.03
2023-01-12T05:08:31.494Z,100415.78
2023-01-12T05:11:02.448Z,100420.91
2023-01-12T05:13:33.000Z,100423.47
2023-01-12T05:16:11.032Z,100419.91
2023-01-12T05:18:40.245Z,100417.31
2023-01-12T05:21:09.764Z,100426.00
2023-01-12T05:23:40.592Z,100422.44
2023-01-12T05:26:11.217Z,100418.22
2023-01-12T05:28:40.723Z,100410.22
2023-01-12T05:31:12.376Z,100406.47
2023-01-12T05:33:43.451Z,100402.03
2023-01-12T05:36:15.420Z,100398.56
2023-01-12T05:38:47.022Z,100394.03
2023-01-12T05:41:16.392Z,100394.13
2023-01-12T05:43:50.571Z,100395.97
2023-01-12T05:46:21.711Z,100407.28
2023-01-12T05:48:51.995Z,100401.78
2023-01-12T05:51:22.365Z,100393.03
2023-01-12T05:53:53.375Z,100398.31
2023-01-12T05:56:25.833Z,100398.31
2023-01-12T05:58:57.046Z,100398.31
2023-01-12T06:01:27.267Z,100396.44
2023-01-12T06:03:58.150Z,100396.25
2023-01-12T06:06:31.193Z,100384.72
2023-01-12T06:09:03.193Z,100388.38
2023-01-12T06:11:49.811Z,100382.97
2023-01-12T06:14:19.351Z,100391.94
2023-01-12T06:16:48.699Z,100384.91
2023-01-12T06:19:17.765Z,100398.00
2023-01-12T06:21:47.068Z,100396.34
2023-01-12T06:24:17.628Z,100393.69
2023-01-12T06:26:47.050Z,100399.00
2023-01-12T06:29:16.048Z,100406.91
2023-01-12T06:31:45.492Z,100404.13
2023-01-12T06:34:14.849Z,100401.47
2023-01-12T06:36:44.042Z,100400.66
2023-01-12T06:39:14.034Z,100396.88
2023-01-12T06:42:02.110Z,100386.19
2023-01-12T06:44:31.208Z,100373.72
2023-01-12T06:47:00.472Z,100364.75
2023-01-12T06:49:29.622Z,100364.75
2023-01-12T06:51:58.943Z,100382.44
2023-01-12T06:54:28.786Z,100372.84
2023-01-12T06:56:59.541Z,100383.41
2023-01-12T06:59:28.695Z,100384.16
2023-01-12T07:01:58.035Z,100383.34
2023-01-12T07:04:27.373Z,100385.94
2023-01-12T07:06:57.043Z,100379.63
2023-01-12T07:09:26.257Z,100380.50
2023-01-12T07:11:55.501Z,100390.44
2023-01-12T07:14:26.039Z,100384.16
2023-01-12T07:16:55.411Z,100381.47
2023-01-12T07:19:24.712Z,100381.44
2023-01-12T07:21:53.955Z,100368.16
2023-01-12T07:24:22.955Z,100371.91
2023-01-12T07:26:53.887Z,100369.88
2023-01-12T07:29:22.945Z,100358.28
2023-01-12T07:31:53.739Z,100361.81
2023-01-12T07:34:22.927Z,100354.75
2023-01-12T07:36:52.456Z,100357.41
2023-01-12T07:39:21.565Z,100353.75
2023-01-12T07:42:08.453Z,100362.38
2023-01-12T07:44:40.354Z,100361.50
2023-01-12T07:47:11.315Z,100360.63
2023-01-12T07:49:40.858Z,100351.56
2023-01-12T07:52:11.743Z,100356.88
2023-01-12T07:54:41.124Z,100351.69
2023-01-12T07:57:12.427Z,100356.00
2023-01-12T07:59:41.579Z,100357.81
2023-01-12T08:02:16.650Z,100355.03
2023-01-12T08:04:46.498Z,100349.59
2023-01-12T08:07:16.001Z,100357.47
2023-01-12T08:09:44.985Z,100348.75
2023-01-12T08:12:14.307Z,100358.38
2023-01-12T08:14:43.958Z,100354.75
2023-01-12T08:17:20.103Z,100355.66
2023-01-12T08:19:57.672Z,100359.19
2023-01-12T08:22:34.241Z,100354.75
2023-01-12T08:25:08.910Z,100352.91
2023-01-12T08:27:42.712Z,100353.63
2023-01-12T08:30:15.118Z,100350.03
2023-01-12T08:32:46.296Z,100342.16
2023-01-12T08:35:19.845Z,100348.22
2023-01-12T08:37:49.296Z,100348.09
2023-01-12T08:40:18.896Z,100347.25
2023-01-12T08:42:50.010Z,100353.19
2023-01-12T08:45:20.867Z,100352.22
2023-01-12T08:47:51.905Z,100353.13
2023-01-12T08:50:21.589Z,100347.81
2023-01-12T08:52:50.862Z,100333.41
2023-01-12T08:55:19.877Z,100334.09
2023-01-12T08:57:49.600Z,100332.25
2023-01-12T09:00:19.946Z,100348.13
2023-01-12T09:02:50.798Z,100337.38
2023-01-12T09:05:19.998Z,100345.38
2023-01-12T09:07:49.602Z,100347.00
2023-01-12T09:10:18.783Z,100360.38
2023-01-12T09:12:48.057Z,100352.25
2023-01-12T09:15:17.141Z,100357.53
2023-01-12T09:17:47.168Z,100355.81
2023-01-12T09:20:18.542Z,100354.88
2023-01-12T09:22:47.901Z,100347.69
2023-01-12T09:25:17.045Z,100353.91
2023-01-12T09:27:46.291Z,100351.09
2023-01-12T09:30:15.722Z,100347.47
2023-01-12T09:32:45.021Z,100350.13
2023-01-12T09:35:14.896Z,100342.16
2023-01-12T09:37:46.412Z,100340.22
2023-01-12T09:40:17.072Z,100333.19
2023-01-12T09:43:08.471Z,100330.56
2023-01-12T09:45:55.009Z,100323.28
2023-01-12T09:48:25.402Z,100322.41
2023-01-12T09:51:02.763Z,100323.94
2023-01-12T09:53:37.916Z,100312.44
2023-01-12T09:56:17.670Z,100327.66
2023-01-12T09:59:07.940Z,100326.56
2023-01-12T10:01:38.118Z,100343.31
2023-01-12T10:04:08.579Z,100334.47
2023-01-12T10:06:38.114Z,100328.09
2023-01-12T10:09:14.781Z,100326.22
2023-01-12T10:11:49.027Z,100328.00
2023-01-12T10:14:46.010Z,100323.50
2023-01-12T10:17:25.735Z,100314.63
2023-01-12T10:20:03.877Z,100307.47
2023-01-12T10:22:40.925Z,100300.50
2023-01-12T10:25:24.073Z,100297.03
2023-01-12T10:27:55.588Z,100292.50
2023-01-12T10:30:30.604Z,100301.41
2023-01-12T10:33:09.098Z,100294.16
2023-01-12T10:35:48.915Z,100292.44
2023-01-12T10:38:28.004Z,100295.91
2023-01-12T10:41:26.533Z,100284.16
2023-01-12T10:44:15.649Z,100281.47
2023-01-12T10:46:45.067Z,100283.09
2023-01-12T10:49:17.120Z,100286.59
2023-01-12T10:51:56.332Z,100274.94
2023-01-12T10:54:29.072Z,100269.50
2023-01-12T10:57:04.485Z,100278.28
2023-01-12T10:59:35.850Z,100272.09
2023-01-12T11:02:20.162Z,100272.16
2023-01-12T11:04:51.632Z,100256.97
2023-01-12T11:07:25.720Z,100260.34
2023-01-12T11:09:57.488Z,100256.66
2023-01-12T11:12:33.933Z,100256.66
2023-01-12T11:15:04.995Z,100250.44
2023-01-12T11:17:50.285Z,100246.59
2023-01-12T11:20:28.533Z,100235.03
2023-01-12T11:23:02.360Z,100230.38
2023-01-12T11:25:35.452Z,100216.16
2023-01-12T11:28:11.917Z,100219.44
2023-01-12T11:30:47.846Z,100197.31
2023-01-12T11:33:21.757Z,100205.25
2023-01-12T11:35:59.255Z,100206.97
2023-01-12T11:38:33.258Z,100198.75
2023-01-12T11:41:02.762Z,100204.19
2023-01-12T11:43:55.810Z,100201.47
2023-01-12T11:46:29.711Z,100194.34
2023-01-12T11:49:08.289Z,100197.25
2023-01-12T11:51:38.338Z,100197.25
2023-01-12T11:54:10.945Z,100184.75
2023-01-12T11:57:10.844Z,100190.75
2023-01-12T11:59:50.592Z,100189.09
2023-01-12T12:02:34.098Z,100185.63
2023-01-12T12:05:19.159Z,100183.63
2023-01-12T12:08:00.953Z,100170.50
2023-01-12T12:10:41.598Z,100172.13
2023-01-12T12:13:39.079Z,100162.25
2023-01-12T12:16:26.911Z,100162.19
2023-01-12T12:19:19.499Z,100155.88
2023-01-12T12:21:50.880Z,100139.75
2023-01-12T12:24:50.928Z,100142.31
2023-01-12T12:27:33.267Z,100131.72
2023-01-12T12:30:28.181Z,100128.25
2023-01-12T12:33:09.545Z,100116.66
2023-01-12T12:35:52.227Z,100114.97
2023-01-12T12:38:37.902Z,100106.78
2023-01-12T12:41:41.473Z,100097.00
2023-01-12T12:44:41.839Z,100093.81
2023-01-12T12:47:34.483Z,100091.00
2023-01-12T12:50:11.093Z,100092.19
2023-01-12T12:52:41.962Z,100081.28
2023-01-12T12:55:14.651Z,100077.75
2023-01-12T12:58:04.392Z,100077.00
2023-01-12T13:00:42.415Z,100074.34
2023-01-12T13:03:12.086Z,100075.44
2023-01-12T13:05:44.999Z,100080.94
2023-01-12T13:08:22.559Z,100079.94
2023-01-12T13:10:57.685Z,100086.19
2023-01-12T13:13:31.258Z,100070.31
2023-01-12T13:16:42.510Z,100078.06
2023-01-12T13:19:16.881Z,100065.75
2023-01-12T13:21:59.228Z,100072.59
2023-01-12T13:24:42.079Z,100076.22
2023-01-12T13:27:47.645Z,100071.72
2023-01-12T13:30:50.616Z,100067.53
2023-01-12T13:33:26.715Z,100062.31
2023-01-12T13:36:10.970Z,100056.09
2023-01-12T13:39:07.337Z,100064.88
2023-01-12T13:41:55.239Z,100047.09
2023-01-12T13:44:29.956Z,100044.47
2023-01-12T13:47:08.379Z,100042.75
2023-01-12T13:49:47.284Z,100043.63
2023-01-12T13:52:30.059Z,100047.13
2023-01-12T13:55:01.265Z,100039.31
2023-01-12T13:57:33.589Z,100041.16
2023-01-12T14:00:08.979Z,100035.94
2023-01-12T14:02:42.965Z,100033.16
2023-01-12T14:05:37.717Z,100035.66
2023-01-12T14:08:34.423Z,100025.03
2023-01-12T14:11:24.925Z,100020.50
2023-01-12T14:14:25.427Z,100020.59
2023-01-12T14:17:15.549Z,100009.06
2023-01-12T14:19:51.764Z,100006.53
2023-01-12T14:22:21.734Z,100001.03
2023-01-12T14:24:51.091Z,100001.03
2023-01-12T14:27:27.561Z,100002.13
2023-01-12T14:29:57.908Z,100004.75
2023-01-12T14:32:27.777Z,99998.56
2023-01-12T14:34:57.778Z,100003.88
2023-01-12T14:37:29.620Z,99992.94
2023-01-12T14:39:59.521Z,99996.31
2023-01-12T14:42:47.630Z,99983.09
2023-01-12T14:45:44.445Z,99978.91
2023-01-12T14:48:26.339Z,99977.09
2023-01-12T14:51:18.636Z,99964.56
2023-01-12T14:53:49.812Z,99970.66
2023-01-12T14:56:23.381Z,99969.06
2023-01-12T14:58:54.716Z,99981.50
2023-01-12T15:01:34.841Z,99975.22
2023-01-12T15:04:06.142Z,99988.50
2023-01-12T15:06:40.581Z,99982.03
2023-01-12T15:09:29.397Z,99968.91
2023-01-12T15:11:58.971Z,99969.78
2023-01-12T15:14:30.769Z,99968.00
2023-01-12T15:17:17.659Z,99965.19
2023-01-12T15:20:04.249Z,99960.72
2023-01-12T15:22:53.284Z,99952.00
2023-01-12T15:25:38.135Z,99970.66
2023-01-12T15:28:08.750Z,99959.00
2023-01-12T15:30:40.482Z,99955.47
2023-01-12T15:33:11.165Z,99955.38
2023-01-12T15:35:45.980Z,99957.97
2023-01-12T15:38:18.110Z,99945.50
2023-01-12T15:40:48.043Z,99955.38
2023-01-12T15:43:18.587Z,99950.84
2023-01-12T15:45:49.696Z,99944.63
2023-01-12T15:48:19.148Z,99931.94
2023-01-12T15:50:48.939Z,99938.84
2023-01-12T15:53:22.139Z,99941.28
2023-01-12T15:55:51.859Z,99935.34
2023-01-12T15:58:21.146Z,99934.59
2023-01-12T16:00:52.397Z,99931.81
2023-01-12T16:03:54.682Z,99930.81
2023-01-12T16:06:11.017Z,99927.06
2023-01-12T16:08:40.691Z,99927.16
2023-01-12T16:11:24.321Z,99927.88
2023-01-12T16:13:54.720Z,99928.88
2023-01-12T16:16:26.724Z,99928.78
2023-01-12T16:18:58.598Z,99915.69
2023-01-12T16:21:29.428Z,99917.22
2023-01-12T16:23:58.878Z,99922.66
2023-01-12T16:26:29.223Z,99913.56
2023-01-12T16:28:58.826Z,99922.34
2023-01-12T16:31:30.218Z,99902.88
2023-01-12T16:33:59.681Z,99912.69
2023-01-12T16:36:28.869Z,99912.56
2023-01-12T16:38:59.336Z,99909.72
2023-01-12T16:41:28.487Z,99904.31
2023-01-12T16:43:59.903Z,99899.94
2023-01-12T16:46:30.394Z,99901.53
2023-01-12T16:48:59.942Z,99904.97
2023-01-12T16:51:28.929Z,99901.59
2023-01-12T16:53:59.481Z,99893.66
2023-01-12T16:56:28.493Z,99913.25
2023-01-12T16:58:59.107Z,99914.25
2023-01-12T17:01:29.923Z,99898.41
2023-01-12T17:03:59.687Z,99906.19
2023-01-12T17:06:30.014Z,99906.34
2023-01-12T17:09:02.639Z,99906.19
2023-01-12T17:11:33.007Z,99910.72
2023-01-12T17:14:23.008Z,99913.38
2023-01-12T17:16:56.322Z,99912.75
2023-01-12T17:19:27.881Z,99904.88
2023-01-12T17:22:01.860Z,99921.59
2023-01-12T17:24:32.503Z,99912.56
2023-01-12T17:27:01.527Z,99901.88
2023-01-12T17:29:30.992Z,99909.94
2023-01-12T17:32:06.815Z,99906.47
2023-01-12T17:34:39.193Z,99897.69
2023-01-12T17:37:09.689Z,99907.44
2023-01-12T17:39:41.699Z,99897.56
2023-01-12T17:42:30.475Z,99894.09
2023-01-12T17:45:00.954Z,99895.97
2023-01-12T17:47:37.292Z,99895.09
2023-01-12T17:50:09.980Z,99886.03
2023-01-12T17:52:40.666Z,99892.34
2023-01-12T17:55:11.007Z,99888.78
2023-01-12T17:57:42.083Z,99889.84
2023-01-12T18:00:17.923Z,99895.03
2023-01-12T18:02:48.505Z,99880.81
2023-01-12T18:05:18.112Z,99875.44
2023-01-12T18:07:47.156Z,99890.50
2023-01-12T18:10:16.618Z,99878.81
2023-01-12T18:12:45.640Z,99886.09
2023-01-12T18:15:14.994Z,99880.91
2023-01-12T18:17:45.495Z,99884.28
2023-01-12T18:20:16.057Z,99873.41
2023-01-12T18:22:46.022Z,99877.94
2023-01-12T18:25:15.999Z,99874.38
2023-01-12T18:27:46.274Z,99872.63
2023-01-12T18:30:15.819Z,99869.16
2023-01-12T18:32:45.888Z,99872.78
2023-01-12T18:35:16.785Z,99871.91
2023-01-12T18:37:47.412Z,99866.72
2023-01-12T18:40:17.007Z,99871.75
2023-01-12T18:42:51.001Z,99867.16
2023-01-12T18:45:24.143Z,99874.28
2023-01-12T18:48:10.958Z,99876.09
2023-01-12T18:50:59.830Z,99869.84
2023-01-12T18:53:31.839Z,99861.84
2023-01-12T18:56:04.536Z,99873.41
2023-01-12T18:58:40.426Z,99873.69
2023-01-12T19:01:10.265Z,99879.69
2023-01-12T19:03:39.483Z,99880.69
2023-01-12T19:06:23.004Z,99894.81
2023-01-12T19:09:11.227Z,99899.06
2023-01-12T19:11:42.807Z,99898.97
2023-01-12T19:14:30.182Z,99896.41
2023-01-12T19:17:16.971Z,99895.41
2023-01-12T19:19:46.138Z,99895.19
2023-01-12T19:22:34.364Z,99891.78
2023-01-12T19:25:21.594Z,99892.66
2023-01-12T19:28:08.331Z,99880.06
2023-01-12T19:30:38.174Z,99883.53
2023-01-12T19:33:08.591Z,99887.28
2023-01-12T19:35:38.645Z,99887.41
2023-01-12T19:38:11.417Z,99881.88
2023-01-12T19:40:46.429Z,99891.78
2023-01-12T19:43:20.295Z,99890.78
2023-01-12T19:45:51.358Z,99896.84
2023-01-12T19:48:23.578Z,99888.19
2023-01-12T19:50:53.846Z,99897.13
2023-01-12T19:53:27.008Z,99895.19
2023-01-12T19:55:56.381Z,99899.56
2023-01-12T19:58:26.997Z,99896.19
2023-01-12T20:00:59.805Z,99896.97
2023-01-12T20:03:29.102Z,99895.13
2023-01-12T20:05:59.964Z,99888.91
2023-01-12T20:08:32.204Z,99887.31
2023-01-12T20:11:05.144Z,99885.53
2023-01-12T20:13:36.287Z,99889.94
2023-01-12T20:16:11.386Z,99895.28
2023-01-12T20:18:46.010Z,99892.53
2023-01-12T20:21:18.862Z,99889.13
2023-01-12T20:23:49.782Z,99893.81
2023-01-12T20:26:19.107Z,99890.34
2023-01-12T20:28:48.945Z,99893.66
2023-01-12T20:31:20.546Z,99899.72
2023-01-12T20:33:50.265Z,99895.13
2023-01-12T20:36:19.671Z,99892.53
2023-01-12T20:38:53.257Z,99893.53
2023-01-12T20:41:23.005Z,99897.84
2023-01-12T20:43:52.441Z,99905.06
2023-01-12T20:46:21.711Z,99899.72
2023-01-12T20:48:51.035Z,99905.19
2023-01-12T20:51:20.255Z,99897.94
2023-01-12T20:53:50.957Z,99909.44
2023-01-12T20:56:22.205Z,99905.09
2023-01-12T20:58:51.548Z,99908.66
2023-01-12T21:01:20.677Z,99914.97
2023-01-12T21:03:49.956Z,99912.25
2023-01-12T21:06:20.004Z,99920.19
2023-01-12T21:08:51.275Z,99917.31
2023-01-12T21:11:22.282Z,99920.06
2023-01-12T21:13:51.658Z,99911.47
2023-01-12T21:16:21.179Z,99920.31
2023-01-12T21:18:52.421Z,99928.25
2023-01-12T21:21:22.204Z,99925.78
2023-01-12T21:23:53.354Z,99916.94
2023-01-12T21:26:22.556Z,99927.25
2023-01-12T21:28:51.870Z,99925.31
2023-01-12T21:31:21.095Z,99925.50
2023-01-12T21:33:50.433Z,99929.09
2023-01-12T21:36:20.198Z,99937.09
2023-01-12T21:38:52.197Z,99928.31
2023-01-12T21:41:22.856Z,99932.91
2023-01-12T21:43:53.598Z,99936.28
2023-01-12T21:46:22.892Z,99927.31
2023-01-12T21:48:52.158Z,99936.38
2023-01-12T21:51:21.308Z,99934.44
2023-01-12T21:53:51.986Z,99937.84
2023-01-12T21:56:21.132Z,99933.59
2023-01-12T21:58:50.717Z,99930.84
2023-01-12T22:01:20.171Z,99932.59
2023-01-12T22:03:49.394Z,99930.84
2023-01-12T22:06:18.487Z,99935.31
2023-01-12T22:08:48.116Z,99932.59
2023-01-12T22:11:19.009Z,99927.09
2023-01-12T22:13:48.678Z,99924.06
2023-01-12T22:16:18.464Z,99922.34
2023-01-12T22:18:50.419Z,99918.44
2023-01-12T22:21:20.769Z,99926.22
2023-01-12T22:23:50.843Z,99921.94
2023-01-12T22:26:21.665Z,99917.31
2023-01-12T22:28:51.060Z,99917.31
2023-01-12T22:31:22.320Z,99930.47
2023-01-12T22:33:57.662Z,99931.44
2023-01-12T22:36:26.930Z,99935.25
2023-01-12T22:38:57.591Z,99934.38
2023-01-12T22:41:28.001Z,99938.56
2023-01-12T22:43:57.435Z,99935.88
2023-01-12T22:46:28.039Z,99935.00
2023-01-12T22:48:59.721Z,99933.09
2023-01-12T22:51:31.455Z,99926.97
2023-01-12T22:54:00.898Z,99924.31
2023-01-12T22:56:31.331Z,99920.91
2023-01-12T22:59:00.939Z,99918.69
2023-01-12T23:01:30.569Z,99916.72
2023-01-12T23:04:00.102Z,99913.94
2023-01-12T23:06:29.132Z,99921.16
2023-01-12T23:08:58.541Z,99918.31
2023-01-12T23:11:28.390Z,99917.44
2023-01-12T23:13:59.304Z,99912.28
2023-01-12T23:16:28.646Z,99919.97
2023-01-12T23:18:58.286Z,99909.41
2023-01-12T23:21:29.055Z,99912.19
2023-01-12T23:24:00.233Z,99902.31
2023-01-12T23:26:32.132Z,99905.94
2023-01-12T23:29:03.618Z,99906.78
2023-01-12T23:31:34.619Z,99903.31
2023-01-12T23:34:04.177Z,99908.59
2023-01-12T23:36:33.303Z,99906.00
2023-01-12T23:39:05.691Z,99897.06
2023-01-12T23:41:37.327Z,99895.50
2023-01-12T23:44:10.575Z,99895.78
2023-01-12T23:46:43.160Z,99892.13
2023-01-12T23:49:13.222Z,99899.28
2023-01-12T23:51:42.609Z,99892.25
2023-01-12T23:54:16.177Z,99901.25
2023-01-12T23:56:45.378Z,99897.69
2023-01-12T23:59:16.122Z,99891.78
